sensor_id;sensor_type;location;lat;lon;timestamp;temperature;humidity
22469;DHT22;11401;50.792;4.352;2022-10-16T00:01:20;19.90;62.00
22469;DHT22;11401;50.792;4.352;2022-10-16T00:03:48;19.80;62.00
22469;DHT22;11401;50.792;4.352;2022-10-16T00:06:17;19.80;62.30
22469;DHT22;11401;50.792;4.352;2022-10-16T00:08:44;19.90;62.50
22469;DHT22;11401;50.792;4.352;2022-10-16T00:11:14;19.90;62.30
22469;DHT22;11401;50.792;4.352;2022-10-16T00:13:43;19.90;62.10
22469;DHT22;11401;50.792;4.352;2022-10-16T00:16:12;19.90;62.00
22469;DHT22;11401;50.792;4.352;2022-10-16T00:18:39;19.90;62.90
22469;DHT22;11401;50.792;4.352;2022-10-16T00:21:13;19.90;62.10
22469;DHT22;11401;50.792;4.352;2022-10-16T00:23:40;19.90;62.20
22469;DHT22;11401;50.792;4.352;2022-10-16T00:26:10;19.90;62.00
22469;DHT22;11401;50.792;4.352;2022-10-16T00:28:39;19.90;62.30
22469;DHT22;11401;50.792;4.352;2022-10-16T00:31:09;19.90;62.80
22469;DHT22;11401;50.792;4.352;2022-10-16T00:33:37;19.90;62.40
22469;DHT22;11401;50.792;4.352;2022-10-16T00:36:06;19.90;62.40
22469;DHT22;11401;50.792;4.352;2022-10-16T00:38:33;19.90;62.20
22469;DHT22;11401;50.792;4.352;2022-10-16T00:41:00;19.90;62.40
22469;DHT22;11401;50.792;4.352;2022-10-16T00:46:48;19.90;62.30
22469;DHT22;11401;50.792;4.352;2022-10-16T00:49:12;20.00;62.70
22469;DHT22;11401;50.792;4.352;2022-10-16T00:51:50;19.90;62.50
22469;DHT22;11401;50.792;4.352;2022-10-16T00:54:25;19.90;63.10
22469;DHT22;11401;50.792;4.352;2022-10-16T00:56:55;19.90;62.60
22469;DHT22;11401;50.792;4.352;2022-10-16T00:59:26;19.80;62.50
22469;DHT22;11401;50.792;4.352;2022-10-16T01:01:54;19.90;62.50
22469;DHT22;11401;50.792;4.352;2022-10-16T01:04:23;19.90;62.50
22469;DHT22;11401;50.792;4.352;2022-10-16T01:10:09;19.80;62.40
22469;DHT22;11401;50.792;4.352;2022-10-16T01:13:00;19.80;62.40
22469;DHT22;11401;50.792;4.352;2022-10-16T01:15:34;19.80;62.80
22469;DHT22;11401;50.792;4.352;2022-10-16T01:21:02;19.80;62.60
22469;DHT22;11401;50.792;4.352;2022-10-16T01:28:51;19.80;62.70
22469;DHT22;11401;50.792;4.352;2022-10-16T01:31:25;19.80;63.00
22469;DHT22;11401;50.792;4.352;2022-10-16T01:34:00;19.80;63.00
22469;DHT22;11401;50.792;4.352;2022-10-16T01:36:39;19.80;62.80
22469;DHT22;11401;50.792;4.352;2022-10-16T01:39:09;19.80;63.00
22469;DHT22;11401;50.792;4.352;2022-10-16T01:41:41;19.70;63.00
22469;DHT22;11401;50.792;4.352;2022-10-16T01:44:17;19.80;63.00
22469;DHT22;11401;50.792;4.352;2022-10-16T01:46:48;19.80;63.00
22469;DHT22;11401;50.792;4.352;2022-10-16T01:49:17;19.80;63.10
22469;DHT22;11401;50.792;4.352;2022-10-16T01:51:47;19.80;63.00
22469;DHT22;11401;50.792;4.352;2022-10-16T01:54:16;19.80;63.10
22469;DHT22;11401;50.792;4.352;2022-10-16T01:56:46;19.70;63.00
22469;DHT22;11401;50.792;4.352;2022-10-16T01:59:19;19.80;63.90
22469;DHT22;11401;50.792;4.352;2022-10-16T02:01:52;19.80;63.10
22469;DHT22;11401;50.792;4.352;2022-10-16T02:04:26;19.70;63.20
22469;DHT22;11401;50.792;4.352;2022-10-16T02:06:54;19.70;63.00
22469;DHT22;11401;50.792;4.352;2022-10-16T02:09:22;19.80;63.50
22469;DHT22;11401;50.792;4.352;2022-10-16T02:11:50;19.70;63.40
22469;DHT22;11401;50.792;4.352;2022-10-16T02:14:19;19.70;63.50
22469;DHT22;11401;50.792;4.352;2022-10-16T02:16:46;19.70;63.40
22469;DHT22;11401;50.792;4.352;2022-10-16T02:19:14;19.70;63.20
22469;DHT22;11401;50.792;4.352;2022-10-16T02:21:55;19.70;63.30
22469;DHT22;11401;50.792;4.352;2022-10-16T02:24:33;19.70;63.60
22469;DHT22;11401;50.792;4.352;2022-10-16T02:27:10;19.70;63.40
22469;DHT22;11401;50.792;4.352;2022-10-16T02:29:41;19.70;63.40
22469;DHT22;11401;50.792;4.352;2022-10-16T02:32:12;19.70;63.50
22469;DHT22;11401;50.792;4.352;2022-10-16T02:34:42;19.70;63.60
22469;DHT22;11401;50.792;4.352;2022-10-16T02:37:10;19.70;63.80
22469;DHT22;11401;50.792;4.352;2022-10-16T02:39:38;19.70;63.60
22469;DHT22;11401;50.792;4.352;2022-10-16T02:42:13;19.80;63.60
22469;DHT22;11401;50.792;4.352;2022-10-16T02:44:40;19.70;63.70
22469;DHT22;11401;50.792;4.352;2022-10-16T02:47:07;19.70;63.70
22469;DHT22;11401;50.792;4.352;2022-10-16T02:49:34;19.70;63.80
22469;DHT22;11401;50.792;4.352;2022-10-16T02:52:01;19.70;63.80
22469;DHT22;11401;50.792;4.352;2022-10-16T02:54:28;19.70;63.90
22469;DHT22;11401;50.792;4.352;2022-10-16T02:56:55;19.70;63.90
22469;DHT22;11401;50.792;4.352;2022-10-16T02:59:22;19.70;63.80
22469;DHT22;11401;50.792;4.352;2022-10-16T03:01:49;19.70;63.70
22469;DHT22;11401;50.792;4.352;2022-10-16T03:04:16;19.70;63.90
22469;DHT22;11401;50.792;4.352;2022-10-16T03:06:43;19.80;63.90
22469;DHT22;11401;50.792;4.352;2022-10-16T03:09:10;19.70;63.90
22469;DHT22;11401;50.792;4.352;2022-10-16T03:11:37;19.70;63.90
22469;DHT22;11401;50.792;4.352;2022-10-16T03:14:04;19.70;64.00
22469;DHT22;11401;50.792;4.352;2022-10-16T03:16:31;19.70;63.80
22469;DHT22;11401;50.792;4.352;2022-10-16T03:18:58;19.70;64.00
22469;DHT22;11401;50.792;4.352;2022-10-16T03:21:24;19.70;63.80
22469;DHT22;11401;50.792;4.352;2022-10-16T03:23:51;19.80;63.90
22469;DHT22;11401;50.792;4.352;2022-10-16T03:26:18;19.70;63.80
22469;DHT22;11401;50.792;4.352;2022-10-16T03:28:45;19.70;63.60
22469;DHT22;11401;50.792;4.352;2022-10-16T03:31:12;19.70;63.80
22469;DHT22;11401;50.792;4.352;2022-10-16T03:33:39;19.70;63.70
22469;DHT22;11401;50.792;4.352;2022-10-16T03:36:06;19.70;63.60
22469;DHT22;11401;50.792;4.352;2022-10-16T03:38:33;19.70;63.90
22469;DHT22;11401;50.792;4.352;2022-10-16T03:41:00;19.70;63.90
22469;DHT22;11401;50.792;4.352;2022-10-16T03:43:27;19.70;64.00
22469;DHT22;11401;50.792;4.352;2022-10-16T03:45:54;19.60;63.90
22469;DHT22;11401;50.792;4.352;2022-10-16T03:48:20;19.70;63.80
22469;DHT22;11401;50.792;4.352;2022-10-16T03:50:47;19.70;64.00
22469;DHT22;11401;50.792;4.352;2022-10-16T03:53:15;19.70;64.10
22469;DHT22;11401;50.792;4.352;2022-10-16T03:55:42;19.60;64.30
22469;DHT22;11401;50.792;4.352;2022-10-16T03:58:09;19.60;64.20
22469;DHT22;11401;50.792;4.352;2022-10-16T04:00:40;19.60;64.10
22469;DHT22;11401;50.792;4.352;2022-10-16T04:03:08;19.60;64.10
22469;DHT22;11401;50.792;4.352;2022-10-16T04:05:35;19.70;64.20
22469;DHT22;11401;50.792;4.352;2022-10-16T04:08:02;19.70;64.00
22469;DHT22;11401;50.792;4.352;2022-10-16T04:10:29;19.70;64.00
22469;DHT22;11401;50.792;4.352;2022-10-16T04:12:56;19.60;64.00
22469;DHT22;11401;50.792;4.352;2022-10-16T04:15:23;19.60;64.20
22469;DHT22;11401;50.792;4.352;2022-10-16T04:17:51;19.60;64.20
22469;DHT22;11401;50.792;4.352;2022-10-16T04:20:18;19.60;64.30
22469;DHT22;11401;50.792;4.352;2022-10-16T04:22:45;19.60;64.40
22469;DHT22;11401;50.792;4.352;2022-10-16T04:25:12;19.50;64.30
22469;DHT22;11401;50.792;4.352;2022-10-16T04:27:39;19.60;64.40
22469;DHT22;11401;50.792;4.352;2022-10-16T04:30:11;19.70;64.20
22469;DHT22;11401;50.792;4.352;2022-10-16T04:32:38;19.60;64.10
22469;DHT22;11401;50.792;4.352;2022-10-16T04:35:06;19.60;63.80
22469;DHT22;11401;50.792;4.352;2022-10-16T04:37:33;19.70;64.20
22469;DHT22;11401;50.792;4.352;2022-10-16T04:40:00;19.60;64.10
22469;DHT22;11401;50.792;4.352;2022-10-16T04:42:27;19.70;64.00
22469;DHT22;11401;50.792;4.352;2022-10-16T04:44:54;19.60;64.20
22469;DHT22;11401;50.792;4.352;2022-10-16T04:47:21;19.60;64.10
22469;DHT22;11401;50.792;4.352;2022-10-16T04:49:48;19.60;64.10
22469;DHT22;11401;50.792;4.352;2022-10-16T04:52:15;19.60;64.20
22469;DHT22;11401;50.792;4.352;2022-10-16T04:54:42;19.60;64.90
22469;DHT22;11401;50.792;4.352;2022-10-16T04:57:09;19.60;64.20
22469;DHT22;11401;50.792;4.352;2022-10-16T04:59:35;19.60;64.40
22469;DHT22;11401;50.792;4.352;2022-10-16T05:02:02;19.60;64.10
22469;DHT22;11401;50.792;4.352;2022-10-16T05:04:30;19.60;64.10
22469;DHT22;11401;50.792;4.352;2022-10-16T05:06:56;19.60;64.30
22469;DHT22;11401;50.792;4.352;2022-10-16T05:09:23;19.70;64.20
22469;DHT22;11401;50.792;4.352;2022-10-16T05:11:50;19.70;64.30
22469;DHT22;11401;50.792;4.352;2022-10-16T05:14:17;19.60;64.30
22469;DHT22;11401;50.792;4.352;2022-10-16T05:16:44;19.60;64.30
22469;DHT22;11401;50.792;4.352;2022-10-16T05:19:13;19.50;64.60
22469;DHT22;11401;50.792;4.352;2022-10-16T05:21:53;19.60;64.60
22469;DHT22;11401;50.792;4.352;2022-10-16T05:24:20;19.60;64.40
22469;DHT22;11401;50.792;4.352;2022-10-16T05:26:46;19.60;64.20
22469;DHT22;11401;50.792;4.352;2022-10-16T05:29:14;19.60;64.20
22469;DHT22;11401;50.792;4.352;2022-10-16T05:31:41;19.60;64.40
22469;DHT22;11401;50.792;4.352;2022-10-16T05:34:08;19.50;64.50
22469;DHT22;11401;50.792;4.352;2022-10-16T05:36:35;19.50;64.90
22469;DHT22;11401;50.792;4.352;2022-10-16T05:39:02;19.60;64.80
22469;DHT22;11401;50.792;4.352;2022-10-16T05:41:29;19.70;64.40
22469;DHT22;11401;50.792;4.352;2022-10-16T05:43:56;19.70;64.40
22469;DHT22;11401;50.792;4.352;2022-10-16T05:46:23;19.70;64.30
22469;DHT22;11401;50.792;4.352;2022-10-16T05:48:52;19.60;64.10
22469;DHT22;11401;50.792;4.352;2022-10-16T05:51:19;19.60;64.90
22469;DHT22;11401;50.792;4.352;2022-10-16T05:53:46;19.60;64.40
22469;DHT22;11401;50.792;4.352;2022-10-16T05:56:14;19.60;64.20
22469;DHT22;11401;50.792;4.352;2022-10-16T05:58:41;19.60;64.30
22469;DHT22;11401;50.792;4.352;2022-10-16T06:01:14;19.60;63.90
22469;DHT22;11401;50.792;4.352;2022-10-16T06:03:42;19.60;64.00
22469;DHT22;11401;50.792;4.352;2022-10-16T06:08:38;19.60;64.10
22469;DHT22;11401;50.792;4.352;2022-10-16T06:11:08;19.60;64.50
22469;DHT22;11401;50.792;4.352;2022-10-16T06:13:36;19.60;64.00
22469;DHT22;11401;50.792;4.352;2022-10-16T06:16:04;19.70;64.00
22469;DHT22;11401;50.792;4.352;2022-10-16T06:18:31;19.60;63.90
22469;DHT22;11401;50.792;4.352;2022-10-16T06:20:58;19.60;64.20
22469;DHT22;11401;50.792;4.352;2022-10-16T06:23:25;19.60;64.00
22469;DHT22;11401;50.792;4.352;2022-10-16T06:25:52;19.70;63.90
22469;DHT22;11401;50.792;4.352;2022-10-16T06:28:19;19.70;63.90
22469;DHT22;11401;50.792;4.352;2022-10-16T06:30:46;19.60;64.10
22469;DHT22;11401;50.792;4.352;2022-10-16T06:33:13;19.70;64.00
22469;DHT22;11401;50.792;4.352;2022-10-16T06:35:40;19.70;63.90
22469;DHT22;11401;50.792;4.352;2022-10-16T06:38:07;19.70;64.10
22469;DHT22;11401;50.792;4.352;2022-10-16T06:40:34;19.60;63.90
22469;DHT22;11401;50.792;4.352;2022-10-16T06:43:01;19.60;64.00
22469;DHT22;11401;50.792;4.352;2022-10-16T06:45:28;19.60;63.90
22469;DHT22;11401;50.792;4.352;2022-10-16T06:47:55;19.60;64.10
22469;DHT22;11401;50.792;4.352;2022-10-16T06:50:22;19.70;64.30
22469;DHT22;11401;50.792;4.352;2022-10-16T06:52:50;19.70;64.10
22469;DHT22;11401;50.792;4.352;2022-10-16T06:55:17;19.70;64.20
22469;DHT22;11401;50.792;4.352;2022-10-16T06:57:46;19.70;64.00
22469;DHT22;11401;50.792;4.352;2022-10-16T07:00:13;19.70;64.10
22469;DHT22;11401;50.792;4.352;2022-10-16T07:02:40;19.70;64.10
22469;DHT22;11401;50.792;4.352;2022-10-16T07:05:08;19.70;63.90
22469;DHT22;11401;50.792;4.352;2022-10-16T07:07:34;19.70;64.00
22469;DHT22;11401;50.792;4.352;2022-10-16T07:10:02;19.70;64.10
22469;DHT22;11401;50.792;4.352;2022-10-16T07:12:28;19.80;64.80
22469;DHT22;11401;50.792;4.352;2022-10-16T07:14:56;19.80;65.20
22469;DHT22;11401;50.792;4.352;2022-10-16T07:17:23;19.80;65.00
22469;DHT22;11401;50.792;4.352;2022-10-16T07:19:49;19.80;65.20
22469;DHT22;11401;50.792;4.352;2022-10-16T07:22:19;19.80;66.00
22469;DHT22;11401;50.792;4.352;2022-10-16T07:24:46;19.90;65.30
22469;DHT22;11401;50.792;4.352;2022-10-16T07:27:18;19.90;64.70
22469;DHT22;11401;50.792;4.352;2022-10-16T07:29:45;19.90;64.80
22469;DHT22;11401;50.792;4.352;2022-10-16T07:32:11;19.90;64.30
22469;DHT22;11401;50.792;4.352;2022-10-16T07:34:38;19.90;64.70
22469;DHT22;11401;50.792;4.352;2022-10-16T07:37:06;19.90;64.30
22469;DHT22;11401;50.792;4.352;2022-10-16T07:39:33;20.00;65.00
22469;DHT22;11401;50.792;4.352;2022-10-16T07:42:00;20.00;64.40
22469;DHT22;11401;50.792;4.352;2022-10-16T07:44:27;20.00;64.50
22469;DHT22;11401;50.792;4.352;2022-10-16T07:46:54;20.10;64.60
22469;DHT22;11401;50.792;4.352;2022-10-16T07:49:20;20.10;64.60
22469;DHT22;11401;50.792;4.352;2022-10-16T07:51:47;20.10;64.40
22469;DHT22;11401;50.792;4.352;2022-10-16T07:54:14;20.10;64.60
22469;DHT22;11401;50.792;4.352;2022-10-16T07:56:41;20.20;65.00
22469;DHT22;11401;50.792;4.352;2022-10-16T07:59:10;20.20;65.10
22469;DHT22;11401;50.792;4.352;2022-10-16T08:01:37;20.30;66.10
22469;DHT22;11401;50.792;4.352;2022-10-16T08:04:05;20.30;64.70
22469;DHT22;11401;50.792;4.352;2022-10-16T08:06:35;20.30;64.90
22469;DHT22;11401;50.792;4.352;2022-10-16T08:09:03;20.30;64.60
22469;DHT22;11401;50.792;4.352;2022-10-16T08:11:30;20.40;64.60
22469;DHT22;11401;50.792;4.352;2022-10-16T08:13:57;20.40;64.50
22469;DHT22;11401;50.792;4.352;2022-10-16T08:16:24;20.50;65.00
22469;DHT22;11401;50.792;4.352;2022-10-16T08:18:51;20.50;64.50
22469;DHT22;11401;50.792;4.352;2022-10-16T08:21:22;20.60;64.90
22469;DHT22;11401;50.792;4.352;2022-10-16T08:23:53;20.60;64.20
22469;DHT22;11401;50.792;4.352;2022-10-16T08:26:25;20.70;64.10
22469;DHT22;11401;50.792;4.352;2022-10-16T08:28:52;20.80;64.00
22469;DHT22;11401;50.792;4.352;2022-10-16T08:31:19;20.80;64.10
22469;DHT22;11401;50.792;4.352;2022-10-16T08:33:47;20.80;63.60
22469;DHT22;11401;50.792;4.352;2022-10-16T08:36:15;20.90;63.20
22469;DHT22;11401;50.792;4.352;2022-10-16T08:38:42;20.90;62.50
22469;DHT22;11401;50.792;4.352;2022-10-16T08:44:09;20.90;62.10
22469;DHT22;11401;50.792;4.352;2022-10-16T08:49:42;21.00;62.40
22469;DHT22;11401;50.792;4.352;2022-10-16T08:52:12;21.10;63.00
22469;DHT22;11401;50.792;4.352;2022-10-16T08:54:51;21.10;62.90
22469;DHT22;11401;50.792;4.352;2022-10-16T08:57:22;21.10;62.90
22469;DHT22;11401;50.792;4.352;2022-10-16T08:59:51;21.10;62.20
22469;DHT22;11401;50.792;4.352;2022-10-16T09:02:28;21.20;62.20
22469;DHT22;11401;50.792;4.352;2022-10-16T09:05:14;21.20;62.10
22469;DHT22;11401;50.792;4.352;2022-10-16T09:18:18;21.20;62.00
22469;DHT22;11401;50.792;4.352;2022-10-16T09:20:57;21.30;62.00
22469;DHT22;11401;50.792;4.352;2022-10-16T09:23:33;21.30;62.20
22469;DHT22;11401;50.792;4.352;2022-10-16T09:26:01;21.30;62.00
22469;DHT22;11401;50.792;4.352;2022-10-16T09:28:29;21.30;62.10
22469;DHT22;11401;50.792;4.352;2022-10-16T09:30:56;21.30;61.80
22469;DHT22;11401;50.792;4.352;2022-10-16T09:33:29;21.30;62.20
22469;DHT22;11401;50.792;4.352;2022-10-16T09:35:59;21.30;61.50
22469;DHT22;11401;50.792;4.352;2022-10-16T09:38:31;21.40;62.40
22469;DHT22;11401;50.792;4.352;2022-10-16T09:41:00;21.40;62.70
22469;DHT22;11401;50.792;4.352;2022-10-16T09:43:38;21.40;62.20
22469;DHT22;11401;50.792;4.352;2022-10-16T09:46:26;21.40;62.60
22469;DHT22;11401;50.792;4.352;2022-10-16T09:48:56;21.40;61.90
22469;DHT22;11401;50.792;4.352;2022-10-16T09:51:27;21.40;61.90
22469;DHT22;11401;50.792;4.352;2022-10-16T09:54:00;21.40;61.80
22469;DHT22;11401;50.792;4.352;2022-10-16T09:56:37;21.50;61.90
22469;DHT22;11401;50.792;4.352;2022-10-16T09:59:18;21.60;62.10
22469;DHT22;11401;50.792;4.352;2022-10-16T10:01:55;21.60;62.00
22469;DHT22;11401;50.792;4.352;2022-10-16T10:04:23;21.60;61.60
22469;DHT22;11401;50.792;4.352;2022-10-16T10:06:54;21.60;62.20
22469;DHT22;11401;50.792;4.352;2022-10-16T10:09:38;21.60;61.20
22469;DHT22;11401;50.792;4.352;2022-10-16T10:12:14;21.60;61.30
22469;DHT22;11401;50.792;4.352;2022-10-16T10:14:50;21.60;61.50
22469;DHT22;11401;50.792;4.352;2022-10-16T10:17:23;21.70;61.60
22469;DHT22;11401;50.792;4.352;2022-10-16T10:19:54;21.70;61.60
22469;DHT22;11401;50.792;4.352;2022-10-16T10:28:16;21.80;61.70
22469;DHT22;11401;50.792;4.352;2022-10-16T10:30:59;21.80;61.40
22469;DHT22;11401;50.792;4.352;2022-10-16T10:49:31;21.70;60.60
22469;DHT22;11401;50.792;4.352;2022-10-16T10:52:22;21.70;60.90
22469;DHT22;11401;50.792;4.352;2022-10-16T11:00:56;21.70;60.70
22469;DHT22;11401;50.792;4.352;2022-10-16T11:06:25;21.70;61.00
22469;DHT22;11401;50.792;4.352;2022-10-16T11:14:50;21.70;60.80
22469;DHT22;11401;50.792;4.352;2022-10-16T11:17:25;21.60;60.80
22469;DHT22;11401;50.792;4.352;2022-10-16T11:20:20;21.60;61.40
22469;DHT22;11401;50.792;4.352;2022-10-16T11:23:06;21.60;61.00
22469;DHT22;11401;50.792;4.352;2022-10-16T11:25:34;21.60;60.90
22469;DHT22;11401;50.792;4.352;2022-10-16T11:28:25;21.50;61.10
22469;DHT22;11401;50.792;4.352;2022-10-16T11:31:02;21.60;60.80
22469;DHT22;11401;50.792;4.352;2022-10-16T11:33:48;21.50;60.70
22469;DHT22;11401;50.792;4.352;2022-10-16T11:36:38;21.60;61.10
22469;DHT22;11401;50.792;4.352;2022-10-16T11:39:31;21.60;61.70
22469;DHT22;11401;50.792;4.352;2022-10-16T11:42:11;21.60;62.00
22469;DHT22;11401;50.792;4.352;2022-10-16T11:44:56;21.60;62.60
22469;DHT22;11401;50.792;4.352;2022-10-16T11:50:52;21.70;63.30
22469;DHT22;11401;50.792;4.352;2022-10-16T11:53:53;21.60;63.80
22469;DHT22;11401;50.792;4.352;2022-10-16T11:56:22;21.70;63.40
22469;DHT22;11401;50.792;4.352;2022-10-16T12:04:41;21.80;64.00
22469;DHT22;11401;50.792;4.352;2022-10-16T12:07:16;21.80;64.10
22469;DHT22;11401;50.792;4.352;2022-10-16T12:09:45;21.80;64.20
22469;DHT22;11401;50.792;4.352;2022-10-16T12:17:56;21.70;59.80
22469;DHT22;11401;50.792;4.352;2022-10-16T12:22:56;21.60;62.10
22469;DHT22;11401;50.792;4.352;2022-10-16T12:25:36;21.60;61.40
22469;DHT22;11401;50.792;4.352;2022-10-16T12:28:19;21.60;60.80
22469;DHT22;11401;50.792;4.352;2022-10-16T12:31:01;21.70;61.60
22469;DHT22;11401;50.792;4.352;2022-10-16T12:33:55;21.80;63.00
22469;DHT22;11401;50.792;4.352;2022-10-16T12:36:32;21.80;63.80
22469;DHT22;11401;50.792;4.352;2022-10-16T12:38:59;21.90;64.30
22469;DHT22;11401;50.792;4.352;2022-10-16T12:41:30;21.90;63.90
22469;DHT22;11401;50.792;4.352;2022-10-16T12:43:58;21.90;63.50
22469;DHT22;11401;50.792;4.352;2022-10-16T12:51:42;22.00;64.50
22469;DHT22;11401;50.792;4.352;2022-10-16T12:54:29;22.00;64.60
22469;DHT22;11401;50.792;4.352;2022-10-16T12:57:29;22.00;63.20
22469;DHT22;11401;50.792;4.352;2022-10-16T13:02:45;22.00;62.20
22469;DHT22;11401;50.792;4.352;2022-10-16T13:08:33;21.90;62.20
22469;DHT22;11401;50.792;4.352;2022-10-16T13:11:44;21.90;62.00
22469;DHT22;11401;50.792;4.352;2022-10-16T13:14:36;22.00;61.80
22469;DHT22;11401;50.792;4.352;2022-10-16T13:22:51;21.90;61.80
22469;DHT22;11401;50.792;4.352;2022-10-16T13:28:19;21.90;61.60
22469;DHT22;11401;50.792;4.352;2022-10-16T13:30:53;21.80;62.20
22469;DHT22;11401;50.792;4.352;2022-10-16T13:33:33;21.90;62.30
22469;DHT22;11401;50.792;4.352;2022-10-16T13:36:01;21.90;61.80
22469;DHT22;11401;50.792;4.352;2022-10-16T13:38:31;21.90;61.60
22469;DHT22;11401;50.792;4.352;2022-10-16T13:41:25;21.90;60.10
22469;DHT22;11401;50.792;4.352;2022-10-16T13:43:54;21.80;60.80
22469;DHT22;11401;50.792;4.352;2022-10-16T13:46:24;21.80;60.90
22469;DHT22;11401;50.792;4.352;2022-10-16T13:48:58;21.80;61.00
22469;DHT22;11401;50.792;4.352;2022-10-16T13:51:27;21.80;61.60
22469;DHT22;11401;50.792;4.352;2022-10-16T13:53:57;21.80;62.10
22469;DHT22;11401;50.792;4.352;2022-10-16T13:56:30;21.80;61.70
22469;DHT22;11401;50.792;4.352;2022-10-16T13:58:59;21.80;61.30
22469;DHT22;11401;50.792;4.352;2022-10-16T14:01:40;21.80;62.00
22469;DHT22;11401;50.792;4.352;2022-10-16T14:04:10;21.90;61.20
22469;DHT22;11401;50.792;4.352;2022-10-16T14:06:42;21.80;61.30
22469;DHT22;11401;50.792;4.352;2022-10-16T14:09:29;21.90;61.50
22469;DHT22;11401;50.792;4.352;2022-10-16T14:12:03;21.90;61.30
22469;DHT22;11401;50.792;4.352;2022-10-16T14:14:39;21.90;61.50
22469;DHT22;11401;50.792;4.352;2022-10-16T14:17:18;21.90;61.30
22469;DHT22;11401;50.792;4.352;2022-10-16T14:19:50;21.90;61.10
22469;DHT22;11401;50.792;4.352;2022-10-16T14:22:40;22.00;61.70
22469;DHT22;11401;50.792;4.352;2022-10-16T14:28:13;22.00;61.20
22469;DHT22;11401;50.792;4.352;2022-10-16T14:30:53;22.00;61.50
22469;DHT22;11401;50.792;4.352;2022-10-16T14:33:31;22.00;61.50
22469;DHT22;11401;50.792;4.352;2022-10-16T14:38:30;22.00;61.50
22469;DHT22;11401;50.792;4.352;2022-10-16T14:40:58;22.00;61.50
22469;DHT22;11401;50.792;4.352;2022-10-16T14:43:35;22.00;61.50
22469;DHT22;11401;50.792;4.352;2022-10-16T14:46:18;22.00;60.70
22469;DHT22;11401;50.792;4.352;2022-10-16T14:48:52;22.00;60.60
22469;DHT22;11401;50.792;4.352;2022-10-16T14:51:20;22.00;61.30
22469;DHT22;11401;50.792;4.352;2022-10-16T14:53:47;22.10;60.70
22469;DHT22;11401;50.792;4.352;2022-10-16T14:56:17;22.10;60.90
22469;DHT22;11401;50.792;4.352;2022-10-16T14:58:45;22.10;60.80
22469;DHT22;11401;50.792;4.352;2022-10-16T15:01:12;22.00;61.50
22469;DHT22;11401;50.792;4.352;2022-10-16T15:03:39;22.00;60.70
22469;DHT22;11401;50.792;4.352;2022-10-16T15:06:11;22.00;61.20
22469;DHT22;11401;50.792;4.352;2022-10-16T15:08:39;22.00;61.20
22469;DHT22;11401;50.792;4.352;2022-10-16T15:11:11;22.10;60.90
22469;DHT22;11401;50.792;4.352;2022-10-16T15:13:39;22.10;61.10
22469;DHT22;11401;50.792;4.352;2022-10-16T15:16:15;22.00;61.30
22469;DHT22;11401;50.792;4.352;2022-10-16T15:18:43;22.10;61.60
22469;DHT22;11401;50.792;4.352;2022-10-16T15:21:40;22.10;61.70
22469;DHT22;11401;50.792;4.352;2022-10-16T15:24:11;22.10;61.50
22469;DHT22;11401;50.792;4.352;2022-10-16T15:26:44;22.00;61.60
22469;DHT22;11401;50.792;4.352;2022-10-16T15:29:15;22.00;61.60
22469;DHT22;11401;50.792;4.352;2022-10-16T15:31:42;22.00;61.50
22469;DHT22;11401;50.792;4.352;2022-10-16T15:34:10;22.00;61.70
22469;DHT22;11401;50.792;4.352;2022-10-16T15:36:38;22.00;61.80
22469;DHT22;11401;50.792;4.352;2022-10-16T15:39:16;21.90;61.80
22469;DHT22;11401;50.792;4.352;2022-10-16T15:41:44;22.00;62.00
22469;DHT22;11401;50.792;4.352;2022-10-16T15:44:11;21.90;62.30
22469;DHT22;11401;50.792;4.352;2022-10-16T15:46:38;21.90;62.50
22469;DHT22;11401;50.792;4.352;2022-10-16T15:49:05;21.90;62.60
22469;DHT22;11401;50.792;4.352;2022-10-16T15:51:32;21.90;62.70
22469;DHT22;11401;50.792;4.352;2022-10-16T15:53:59;21.90;62.60
22469;DHT22;11401;50.792;4.352;2022-10-16T15:56:28;21.90;62.80
22469;DHT22;11401;50.792;4.352;2022-10-16T15:58:56;21.90;62.70
22469;DHT22;11401;50.792;4.352;2022-10-16T16:01:25;21.90;62.90
22469;DHT22;11401;50.792;4.352;2022-10-16T16:03:53;21.90;62.90
22469;DHT22;11401;50.792;4.352;2022-10-16T16:06:20;21.90;63.00
22469;DHT22;11401;50.792;4.352;2022-10-16T16:08:48;21.90;63.10
22469;DHT22;11401;50.792;4.352;2022-10-16T16:11:16;21.80;63.00
22469;DHT22;11401;50.792;4.352;2022-10-16T16:13:44;21.80;63.00
22469;DHT22;11401;50.792;4.352;2022-10-16T16:16:12;21.80;63.00
22469;DHT22;11401;50.792;4.352;2022-10-16T16:18:40;21.80;63.10
22469;DHT22;11401;50.792;4.352;2022-10-16T16:21:08;21.80;63.10
22469;DHT22;11401;50.792;4.352;2022-10-16T16:23:36;21.70;63.10
22469;DHT22;11401;50.792;4.352;2022-10-16T16:28:34;21.80;63.10
22469;DHT22;11401;50.792;4.352;2022-10-16T16:31:02;21.70;63.70
22469;DHT22;11401;50.792;4.352;2022-10-16T16:33:29;21.70;63.90
22469;DHT22;11401;50.792;4.352;2022-10-16T16:36:03;21.70;63.90
22469;DHT22;11401;50.792;4.352;2022-10-16T16:38:32;21.70;63.80
22469;DHT22;11401;50.792;4.352;2022-10-16T16:40:59;21.70;63.70
22469;DHT22;11401;50.792;4.352;2022-10-16T16:43:27;21.70;63.70
22469;DHT22;11401;50.792;4.352;2022-10-16T16:45:54;21.70;63.60
22469;DHT22;11401;50.792;4.352;2022-10-16T16:48:21;21.70;63.60
22469;DHT22;11401;50.792;4.352;2022-10-16T16:50:48;21.60;64.40
22469;DHT22;11401;50.792;4.352;2022-10-16T16:53:15;21.60;63.90
22469;DHT22;11401;50.792;4.352;2022-10-16T16:55:43;21.60;63.90
22469;DHT22;11401;50.792;4.352;2022-10-16T16:58:10;21.70;63.90
22469;DHT22;11401;50.792;4.352;2022-10-16T17:00:37;21.70;63.80
22469;DHT22;11401;50.792;4.352;2022-10-16T17:03:03;21.70;64.00
22469;DHT22;11401;50.792;4.352;2022-10-16T17:05:30;21.70;64.40
22469;DHT22;11401;50.792;4.352;2022-10-16T17:07:57;21.70;64.90
22469;DHT22;11401;50.792;4.352;2022-10-16T17:10:24;21.80;65.00
22469;DHT22;11401;50.792;4.352;2022-10-16T17:12:51;21.80;65.10
22469;DHT22;11401;50.792;4.352;2022-10-16T17:15:21;21.70;65.10
22469;DHT22;11401;50.792;4.352;2022-10-16T17:17:48;21.70;65.20
22469;DHT22;11401;50.792;4.352;2022-10-16T17:20:15;21.70;65.40
22469;DHT22;11401;50.792;4.352;2022-10-16T17:22:42;21.70;65.50
22469;DHT22;11401;50.792;4.352;2022-10-16T17:25:10;21.60;65.70
22469;DHT22;11401;50.792;4.352;2022-10-16T17:27:37;21.60;66.20
22469;DHT22;11401;50.792;4.352;2022-10-16T17:30:04;21.60;66.30
22469;DHT22;11401;50.792;4.352;2022-10-16T17:32:31;21.60;66.20
22469;DHT22;11401;50.792;4.352;2022-10-16T17:34:58;21.60;66.30
22469;DHT22;11401;50.792;4.352;2022-10-16T17:37:25;21.60;66.50
22469;DHT22;11401;50.792;4.352;2022-10-16T17:39:52;21.50;66.50
22469;DHT22;11401;50.792;4.352;2022-10-16T17:42:19;21.40;66.90
22469;DHT22;11401;50.792;4.352;2022-10-16T17:44:46;21.30;68.10
22469;DHT22;11401;50.792;4.352;2022-10-16T17:47:13;21.50;67.20